sensor_id;sensor_type;location;lat;lon;timestamp;pressure;altitude;pressure_sealevel;temperature;humidity
70127;BME280;57491;42.694;23.314;2022-08-11T00:01:51;95246.28;;;21.16;61.52
70127;BME280;57491;42.694;23.314;2022-08-11T00:04:22;95247.88;;;21.17;61.21
70127;BME280;57491;42.694;23.314;2022-08-11T00:06:52;95243.38;;;21.18;61.36
70127;BME280;57491;42.694;23.314;2022-08-11T00:09:30;95249.78;;;21.22;61.21
70127;BME280;57491;42.694;23.314;2022-08-11T00:11:58;95245.00;;;21.19;61.48
70127;BME280;57491;42.694;23.314;2022-08-11T00:14:27;95249.00;;;21.21;61.32
70127;BME280;57491;42.694;23.314;2022-08-11T00:16:57;95247.63;;;21.19;61.40
70127;BME280;57491;42.694;23.314;2022-08-11T00:19:28;95253.72;;;21.19;61.36
70127;BME280;57491;42.694;23.314;2022-08-11T00:21:57;95249.25;;;21.20;61.40
70127;BME280;57491;42.694;23.314;2022-08-11T00:24:31;95241.53;;;21.18;61.33
70127;BME280;57491;42.694;23.314;2022-08-11T00:26:59;95244.50;;;21.22;61.11
70127;BME280;57491;42.694;23.314;2022-08-11T00:29:28;95235.44;;;21.18;61.12
70127;BME280;57491;42.694;23.314;2022-08-11T00:31:57;95239.47;;;21.20;61.43
70127;BME280;57491;42.694;23.314;2022-08-11T00:34:30;95243.25;;;21.24;61.33
70127;BME280;57491;42.694;23.314;2022-08-11T00:37:01;95229.03;;;21.14;61.57
70127;BME280;57491;42.694;23.314;2022-08-11T00:39:31;95221.50;;;21.06;61.57
70127;BME280;57491;42.694;23.314;2022-08-11T00:42:13;95236.41;;;21.12;61.85
70127;BME280;57491;42.694;23.314;2022-08-11T00:44:51;95235.81;;;21.10;61.97
70127;BME280;57491;42.694;23.314;2022-08-11T00:47:28;95219.47;;;20.96;62.11
70127;BME280;57491;42.694;23.314;2022-08-11T00:50:12;95227.56;;;21.06;61.88
70127;BME280;57491;42.694;23.314;2022-08-11T00:53:04;95227.66;;;21.11;62.05
70127;BME280;57491;42.694;23.314;2022-08-11T00:56:15;95229.25;;;21.12;62.07
70127;BME280;57491;42.694;23.314;2022-08-11T00:59:06;95218.75;;;21.01;61.95
70127;BME280;57491;42.694;23.314;2022-08-11T01:02:07;95229.41;;;21.06;62.33
70127;BME280;57491;42.694;23.314;2022-08-11T01:05:02;95234.72;;;21.06;62.30
70127;BME280;57491;42.694;23.314;2022-08-11T01:11:22;95234.22;;;20.92;62.71
70127;BME280;57491;42.694;23.314;2022-08-11T01:30:18;95231.84;;;21.07;62.12
70127;BME280;57491;42.694;23.314;2022-08-11T01:36:46;95218.75;;;21.01;62.29
70127;BME280;57491;42.694;23.314;2022-08-11T01:46:03;95215.47;;;20.93;62.50
70127;BME280;57491;42.694;23.314;2022-08-11T01:48:40;95213.56;;;20.89;62.67
70127;BME280;57491;42.694;23.314;2022-08-11T01:51:16;95218.59;;;20.90;62.81
70127;BME280;57491;42.694;23.314;2022-08-11T01:53:52;95214.91;;;20.91;62.52
70127;BME280;57491;42.694;23.314;2022-08-11T01:56:31;95198.25;;;20.74;62.65
70127;BME280;57491;42.694;23.314;2022-08-11T01:59:09;95216.44;;;20.87;62.79
70127;BME280;57491;42.694;23.314;2022-08-11T02:01:47;95210.03;;;20.83;62.72
70127;BME280;57491;42.694;23.314;2022-08-11T02:04:30;95216.91;;;20.84;62.98
70127;BME280;57491;42.694;23.314;2022-08-11T02:07:03;95212.41;;;20.85;62.75
70127;BME280;57491;42.694;23.314;2022-08-11T02:09:49;95216.44;;;20.87;62.73
70127;BME280;57491;42.694;23.314;2022-08-11T02:12:33;95217.22;;;20.88;62.73
70127;BME280;57491;42.694;23.314;2022-08-11T02:15:11;95210.47;;;20.80;62.75
70127;BME280;57491;42.694;23.314;2022-08-11T02:17:48;95220.72;;;20.77;63.14
70127;BME280;57491;42.694;23.314;2022-08-11T02:20:19;95205.91;;;20.59;63.82
70127;BME280;57491;42.694;23.314;2022-08-11T02:23:16;95210.63;;;20.57;64.07
70127;BME280;57491;42.694;23.314;2022-08-11T02:26:17;95223.41;;;20.48;64.33
70127;BME280;57491;42.694;23.314;2022-08-11T02:29:04;95220.84;;;20.54;64.17
70127;BME280;57491;42.694;23.314;2022-08-11T02:31:53;95222.44;;;20.55;64.27
70127;BME280;57491;42.694;23.314;2022-08-11T02:34:46;95175.16;;;20.25;63.98
70127;BME280;57491;42.694;23.314;2022-08-11T02:37:26;95222.78;;;20.58;63.94
70127;BME280;57491;42.694;23.314;2022-08-11T02:40:08;95215.44;;;20.60;63.75
70127;BME280;57491;42.694;23.314;2022-08-11T02:42:48;95215.19;;;20.62;63.72
70127;BME280;57491;42.694;23.314;2022-08-11T02:45:31;95192.38;;;20.56;63.44
70127;BME280;57491;42.694;23.314;2022-08-11T02:48:05;95205.56;;;20.56;63.36
70127;BME280;57491;42.694;23.314;2022-08-11T02:51:04;95200.44;;;20.49;63.92
70127;BME280;57491;42.694;23.314;2022-08-11T02:53:39;95198.06;;;20.36;63.92
70127;BME280;57491;42.694;23.314;2022-08-11T02:56:15;95217.47;;;20.41;64.11
70127;BME280;57491;42.694;23.314;2022-08-11T02:58:55;95221.94;;;20.41;64.15
70127;BME280;57491;42.694;23.314;2022-08-11T03:01:50;95210.28;;;20.25;64.49
70127;BME280;57491;42.694;23.314;2022-08-11T03:04:23;95212.88;;;20.37;64.43
70127;BME280;57491;42.694;23.314;2022-08-11T03:06:58;95198.09;;;20.24;64.30
70127;BME280;57491;42.694;23.314;2022-08-11T03:09:41;95225.06;;;20.38;64.28
70127;BME280;57491;42.694;23.314;2022-08-11T03:12:15;95212.09;;;20.25;64.53
70127;BME280;57491;42.694;23.314;2022-08-11T03:15:10;95223.00;;;20.28;64.38
70127;BME280;57491;42.694;23.314;2022-08-11T03:18:00;95223.34;;;20.32;64.61
70127;BME280;57491;42.694;23.314;2022-08-11T03:20:38;95192.94;;;20.18;64.46
70127;BME280;57491;42.694;23.314;2022-08-11T03:23:16;95208.31;;;20.32;64.30
70127;BME280;57491;42.694;23.314;2022-08-11T03:25:56;95162.03;;;20.01;64.21
70127;BME280;57491;42.694;23.314;2022-08-11T03:28:28;95189.84;;;20.21;64.04
70127;BME280;57491;42.694;23.314;2022-08-11T03:31:12;95215.69;;;20.30;64.44
70127;BME280;57491;42.694;23.314;2022-08-11T03:33:46;95215.28;;;20.27;64.49
70127;BME280;57491;42.694;23.314;2022-08-11T03:36:50;95215.78;;;20.24;64.76
70127;BME280;57491;42.694;23.314;2022-08-11T03:39:23;95220.56;;;20.27;64.81
70127;BME280;57491;42.694;23.314;2022-08-11T03:42:01;95214.88;;;20.30;64.83
70127;BME280;57491;42.694;23.314;2022-08-11T03:44:46;95211.63;;;20.28;64.46
70127;BME280;57491;42.694;23.314;2022-08-11T03:47:41;95221.94;;;20.41;64.21
70127;BME280;57491;42.694;23.314;2022-08-11T03:53:15;95221.00;;;20.47;63.52
70127;BME280;57491;42.694;23.314;2022-08-11T03:59:19;95196.56;;;20.40;63.19
70127;BME280;57491;42.694;23.314;2022-08-11T04:02:07;95226.00;;;20.60;63.11
70127;BME280;57491;42.694;23.314;2022-08-11T04:05:13;95233.06;;;20.71;62.86
70127;BME280;57491;42.694;23.314;2022-08-11T04:14:03;95231.63;;;20.80;61.97
70127;BME280;57491;42.694;23.314;2022-08-11T04:20:07;95235.03;;;20.92;61.60
70127;BME280;57491;42.694;23.314;2022-08-11T04:23:03;95232.47;;;20.98;61.29
70127;BME280;57491;42.694;23.314;2022-08-11T04:26:04;95241.50;;;21.02;61.15
70127;BME280;57491;42.694;23.314;2022-08-11T04:28:52;95233.81;;;21.00;60.95
70127;BME280;57491;42.694;23.314;2022-08-11T04:31:34;95238.28;;;21.00;61.08
70127;BME280;57491;42.694;23.314;2022-08-11T04:34:19;95236.22;;;21.02;61.00
70127;BME280;57491;42.694;23.314;2022-08-11T04:37:10;95230.88;;;21.13;60.38
70127;BME280;57491;42.694;23.314;2022-08-11T04:40:17;95243.38;;;21.34;59.96
70127;BME280;57491;42.694;23.314;2022-08-11T04:43:30;95238.88;;;21.52;59.37
70127;BME280;57491;42.694;23.314;2022-08-11T04:46:25;95237.81;;;21.69;58.82
70127;BME280;57491;42.694;23.314;2022-08-11T04:49:17;95235.56;;;21.78;58.35
70127;BME280;57491;42.694;23.314;2022-08-11T04:52:43;95249.25;;;21.92;57.93
70127;BME280;57491;42.694;23.314;2022-08-11T04:59:29;95235.28;;;22.18;56.92
70127;BME280;57491;42.694;23.314;2022-08-11T05:05:22;95240.81;;;22.16;56.84
70127;BME280;57491;42.694;23.314;2022-08-11T05:11:33;95240.28;;;22.36;56.39
70127;BME280;57491;42.694;23.314;2022-08-11T05:14:28;95234.09;;;22.52;56.40
70127;BME280;57491;42.694;23.314;2022-08-11T05:17:14;95244.78;;;22.62;55.68
70127;BME280;57491;42.694;23.314;2022-08-11T05:20:08;95245.91;;;22.66;55.69
70127;BME280;57491;42.694;23.314;2022-08-11T05:22:54;95238.50;;;22.68;55.28
70127;BME280;57491;42.694;23.314;2022-08-11T05:25:43;95240.22;;;22.80;54.99
70127;BME280;57491;42.694;23.314;2022-08-11T05:28:32;95229.59;;;22.53;55.39
70127;BME280;57491;42.694;23.314;2022-08-11T05:31:25;95243.00;;;22.68;55.58
70127;BME280;57491;42.694;23.314;2022-08-11T05:34:22;95236.91;;;22.67;55.88
70127;BME280;57491;42.694;23.314;2022-08-11T05:37:11;95234.13;;;22.79;55.32
70127;BME280;57491;42.694;23.314;2022-08-11T05:39:43;95184.47;;;22.69;54.99
70127;BME280;57491;42.694;23.314;2022-08-11T05:42:31;95201.66;;;22.94;54.50
70127;BME280;57491;42.694;23.314;2022-08-11T05:45:17;95241.28;;;23.10;54.56
70127;BME280;57491;42.694;23.314;2022-08-11T05:48:04;95246.59;;;23.10;54.64
70127;BME280;57491;42.694;23.314;2022-08-11T05:50:53;95240.81;;;23.13;54.62
70127;BME280;57491;42.694;23.314;2022-08-11T05:53:46;95241.66;;;23.24;54.58
70127;BME280;57491;42.694;23.314;2022-08-11T05:56:32;95233.94;;;23.49;54.27
70127;BME280;57491;42.694;23.314;2022-08-11T05:59:00;95235.06;;;23.59;53.57
70127;BME280;57491;42.694;23.314;2022-08-11T06:01:29;95233.84;;;23.76;53.00
70127;BME280;57491;42.694;23.314;2022-08-11T06:04:04;95230.47;;;23.91;52.82
70127;BME280;57491;42.694;23.314;2022-08-11T06:06:50;95239.06;;;24.08;52.09
70127;BME280;57491;42.694;23.314;2022-08-11T06:09:36;95225.06;;;24.23;52.08
70127;BME280;57491;42.694;23.314;2022-08-11T06:12:07;95243.50;;;24.44;51.30
70127;BME280;57491;42.694;23.314;2022-08-11T06:14:41;95223.31;;;24.59;50.80
70127;BME280;57491;42.694;23.314;2022-08-11T06:17:11;95230.28;;;24.85;50.88
70127;BME280;57491;42.694;23.314;2022-08-11T06:19:42;95235.13;;;24.98;49.89
70127;BME280;57491;42.694;23.314;2022-08-11T06:22:19;95227.66;;;24.90;49.68
70127;BME280;57491;42.694;23.314;2022-08-11T06:24:52;95219.34;;;24.61;50.57
70127;BME280;57491;42.694;23.314;2022-08-11T06:27:21;95231.31;;;24.69;50.62
70127;BME280;57491;42.694;23.314;2022-08-11T06:29:52;95232.38;;;24.73;50.42
70127;BME280;57491;42.694;23.314;2022-08-11T06:32:23;95219.09;;;24.78;50.46
70127;BME280;57491;42.694;23.314;2022-08-11T06:35:02;95223.13;;;25.01;50.23
70127;BME280;57491;42.694;23.314;2022-08-11T06:37:40;95224.47;;;25.18;50.03
70127;BME280;57491;42.694;23.314;2022-08-11T06:40:20;95222.88;;;25.27;49.34
70127;BME280;57491;42.694;23.314;2022-08-11T06:42:55;95225.53;;;25.38;48.94
70127;BME280;57491;42.694;23.314;2022-08-11T06:45:28;95229.81;;;25.59;48.32
70127;BME280;57491;42.694;23.314;2022-08-11T06:47:58;95220.19;;;25.73;47.91
70127;BME280;57491;42.694;23.314;2022-08-11T06:50:29;95224.13;;;26.01;47.46
70127;BME280;57491;42.694;23.314;2022-08-11T06:53:15;95238.97;;;26.32;46.90
70127;BME280;57491;42.694;23.314;2022-08-11T06:55:45;95220.72;;;26.54;45.70
70127;BME280;57491;42.694;23.314;2022-08-11T06:58:32;95223.47;;;26.88;44.08
70127;BME280;57491;42.694;23.314;2022-08-11T07:01:25;95219.00;;;27.18;41.55
70127;BME280;57491;42.694;23.314;2022-08-11T07:04:01;95221.56;;;27.33;42.40
70127;BME280;57491;42.694;23.314;2022-08-11T07:06:49;95228.09;;;27.50;41.65
70127;BME280;57491;42.694;23.314;2022-08-11T07:10:10;95224.78;;;27.64;41.81
70127;BME280;57491;42.694;23.314;2022-08-11T07:13:02;95229.34;;;27.58;42.16
70127;BME280;57491;42.694;23.314;2022-08-11T07:15:47;95228.25;;;27.64;41.56
70127;BME280;57491;42.694;23.314;2022-08-11T07:18:20;95180.97;;;27.31;42.23
70127;BME280;57491;42.694;23.314;2022-08-11T07:21:14;95233.66;;;27.54;42.12
70127;BME280;57491;42.694;23.314;2022-08-11T07:24:03;95235.91;;;27.71;41.91
70127;BME280;57491;42.694;23.314;2022-08-11T07:27:06;95233.38;;;27.84;40.60
70127;BME280;57491;42.694;23.314;2022-08-11T07:29:53;95229.94;;;27.79;40.29
70127;BME280;57491;42.694;23.314;2022-08-11T07:32:25;95227.22;;;27.84;40.37
70127;BME280;57491;42.694;23.314;2022-08-11T07:34:57;95224.72;;;28.21;40.66
70127;BME280;57491;42.694;23.314;2022-08-11T07:37:28;95220.03;;;28.51;39.65
70127;BME280;57491;42.694;23.314;2022-08-11T07:39:58;95220.72;;;28.61;39.40
70127;BME280;57491;42.694;23.314;2022-08-11T07:42:28;95218.44;;;28.92;39.31
70127;BME280;57491;42.694;23.314;2022-08-11T07:44:58;95211.66;;;29.00;38.88
70127;BME280;57491;42.694;23.314;2022-08-11T07:47:45;95221.38;;;29.09;37.53
70127;BME280;57491;42.694;23.314;2022-08-11T07:50:29;95214.88;;;29.15;37.29
70127;BME280;57491;42.694;23.314;2022-08-11T07:53:15;95213.41;;;29.42;37.05
70127;BME280;57491;42.694;23.314;2022-08-11T07:55:47;95216.81;;;29.61;36.34
70127;BME280;57491;42.694;23.314;2022-08-11T07:58:15;95214.50;;;30.00;35.43
70127;BME280;57491;42.694;23.314;2022-08-11T08:01:01;95203.16;;;29.76;36.10
70127;BME280;57491;42.694;23.314;2022-08-11T08:03:46;95209.69;;;29.70;35.50
70127;BME280;57491;42.694;23.314;2022-08-11T08:06:32;95212.88;;;29.86;35.84
70127;BME280;57491;42.694;23.314;2022-08-11T08:09:20;95198.03;;;30.07;35.38
70127;BME280;57491;42.694;23.314;2022-08-11T08:12:07;95202.09;;;30.32;34.86
70127;BME280;57491;42.694;23.314;2022-08-11T08:14:53;95187.00;;;30.08;35.31
70127;BME280;57491;42.694;23.314;2022-08-11T08:17:40;95205.88;;;30.17;35.77
70127;BME280;57491;42.694;23.314;2022-08-11T08:20:23;95210.47;;;30.03;35.43
70127;BME280;57491;42.694;23.314;2022-08-11T08:22:52;95209.16;;;29.54;35.57
70127;BME280;57491;42.694;23.314;2022-08-11T08:25:23;95213.34;;;29.60;36.09
70127;BME280;57491;42.694;23.314;2022-08-11T08:27:54;95204.94;;;29.67;35.75
70127;BME280;57491;42.694;23.314;2022-08-11T08:30:23;95206.19;;;29.88;35.49
70127;BME280;57491;42.694;23.314;2022-08-11T08:33:11;95198.03;;;30.34;34.71
70127;BME280;57491;42.694;23.314;2022-08-11T08:35:40;95200.25;;;29.73;35.00
70127;BME280;57491;42.694;23.314;2022-08-11T08:38:09;95197.66;;;29.21;36.54
70127;BME280;57491;42.694;23.314;2022-08-11T08:40:38;95187.25;;;28.82;36.49
70127;BME280;57491;42.694;23.314;2022-08-11T08:43:14;95186.91;;;28.70;36.78
70127;BME280;57491;42.694;23.314;2022-08-11T08:45:43;95180.94;;;29.11;37.33
70127;BME280;57491;42.694;23.314;2022-08-11T08:48:13;95187.97;;;29.72;36.99
70127;BME280;57491;42.694;23.314;2022-08-11T08:50:48;95181.84;;;30.12;35.98
70127;BME280;57491;42.694;23.314;2022-08-11T08:53:35;95183.84;;;30.83;34.69
70127;BME280;57491;42.694;23.314;2022-08-11T08:56:09;95174.25;;;31.35;33.31
70127;BME280;57491;42.694;23.314;2022-08-11T08:58:47;95181.19;;;31.81;32.70
70127;BME280;57491;42.694;23.314;2022-08-11T09:01:18;95182.41;;;32.06;31.88
70127;BME280;57491;42.694;23.314;2022-08-11T09:03:47;95180.44;;;31.98;32.32
70127;BME280;57491;42.694;23.314;2022-08-11T09:06:15;95187.09;;;31.61;32.37
70127;BME280;57491;42.694;23.314;2022-08-11T09:08:43;95182.81;;;31.37;33.14
70127;BME280;57491;42.694;23.314;2022-08-11T09:11:22;95182.88;;;31.68;32.59
70127;BME280;57491;42.694;23.314;2022-08-11T09:14:12;95176.81;;;31.63;32.17
70127;BME280;57491;42.694;23.314;2022-08-11T09:16:40;95171.47;;;31.18;32.59
70127;BME280;57491;42.694;23.314;2022-08-11T09:19:09;95163.91;;;31.42;32.35
70127;BME280;57491;42.694;23.314;2022-08-11T09:21:40;95153.84;;;31.87;31.08
70127;BME280;57491;42.694;23.314;2022-08-11T09:24:07;95155.00;;;32.04;30.64
70127;BME280;57491;42.694;23.314;2022-08-11T09:26:53;95165.31;;;31.71;30.55
70127;BME280;57491;42.694;23.314;2022-08-11T09:29:30;95171.94;;;31.65;31.20
70127;BME280;57491;42.694;23.314;2022-08-11T09:31:59;95172.72;;;31.96;31.12
70127;BME280;57491;42.694;23.314;2022-08-11T09:34:27;95168.91;;;32.37;30.13
70127;BME280;57491;42.694;23.314;2022-08-11T09:36:55;95144.03;;;32.40;29.92
70127;BME280;57491;42.694;23.314;2022-08-11T09:39:42;95159.41;;;32.48;30.39
70127;BME280;57491;42.694;23.314;2022-08-11T09:42:39;95149.44;;;32.48;29.64
70127;BME280;57491;42.694;23.314;2022-08-11T09:45:26;95161.59;;;32.28;30.49
70127;BME280;57491;42.694;23.314;2022-08-11T09:47:54;95156.75;;;32.65;30.66
70127;BME280;57491;42.694;23.314;2022-08-11T09:50:22;95157.06;;;33.24;29.50
70127;BME280;57491;42.694;23.314;2022-08-11T09:52:49;95152.00;;;33.86;28.98
70127;BME280;57491;42.694;23.314;2022-08-11T09:55:17;95153.59;;;34.45;27.10
70127;BME280;57491;42.694;23.314;2022-08-11T09:57:46;95138.44;;;34.82;26.89
70127;BME280;57491;42.694;23.314;2022-08-11T10:00:34;95149.72;;;34.84;26.37
70127;BME280;57491;42.694;23.314;2022-08-11T10:03:06;95146.66;;;35.07;26.35
70127;BME280;57491;42.694;23.314;2022-08-11T10:05:33;95138.28;;;35.00;25.73
70127;BME280;57491;42.694;23.314;2022-08-11T10:08:20;95138.75;;;35.02;25.28
70127;BME280;57491;42.694;23.314;2022-08-11T10:10:48;95115.56;;;35.01;25.90
70127;BME280;57491;42.694;23.314;2022-08-11T10:13:18;95127.50;;;35.32;25.24
70127;BME280;57491;42.694;23.314;2022-08-11T10:15:56;95126.91;;;35.27;24.62
70127;BME280;57491;42.694;23.314;2022-08-11T10:18:36;95135.66;;;35.12;25.92
70127;BME280;57491;42.694;23.314;2022-08-11T10:21:23;95129.31;;;34.16;26.46
70127;BME280;57491;42.694;23.314;2022-08-11T10:23:54;95137.91;;;34.10;26.23
70127;BME280;57491;42.694;23.314;2022-08-11T10:26:41;95137.22;;;34.30;26.12
70127;BME280;57491;42.694;23.314;2022-08-11T10:29:27;95116.47;;;34.42;26.47
70127;BME280;57491;42.694;23.314;2022-08-11T10:32:13;95133.69;;;34.79;25.40
70127;BME280;57491;42.694;23.314;2022-08-11T10:35:01;95116.31;;;35.22;25.14
70127;BME280;57491;42.694;23.314;2022-08-11T10:37:32;95129.00;;;35.54;24.62
70127;BME280;57491;42.694;23.314;2022-08-11T10:40:02;95136.09;;;34.81;24.36
70127;BME280;57491;42.694;23.314;2022-08-11T10:42:32;95117.13;;;34.39;26.08
70127;BME280;57491;42.694;23.314;2022-08-11T10:45:18;95120.69;;;34.52;25.35
70127;BME280;57491;42.694;23.314;2022-08-11T10:48:05;95132.38;;;34.85;25.00
70127;BME280;57491;42.694;23.314;2022-08-11T10:50:33;95114.56;;;35.26;24.67
70127;BME280;57491;42.694;23.314;2022-08-11T10:53:14;95110.50;;;35.32;24.29
70127;BME280;57491;42.694;23.314;2022-08-11T10:56:02;95103.06;;;35.29;23.88
70127;BME280;57491;42.694;23.314;2022-08-11T10:58:47;95102.88;;;35.46;23.93
70127;BME280;57491;42.694;23.314;2022-08-11T11:01:17;95099.44;;;35.70;23.65
70127;BME280;57491;42.694;23.314;2022-08-11T11:03:50;95104.16;;;36.09;23.16
70127;BME280;57491;42.694;23.314;2022-08-11T11:06:23;95091.88;;;36.00;23.54
70127;BME280;57491;42.694;23.314;2022-08-11T11:08:59;95104.94;;;36.34;23.53
70127;BME280;57491;42.694;23.314;2022-08-11T11:11:30;95106.25;;;35.55;24.39
70127;BME280;57491;42.694;23.314;2022-08-11T11:14:18;95094.84;;;35.25;24.54
70127;BME280;57491;42.694;23.314;2022-08-11T11:17:05;95099.53;;;34.96;24.37
70127;BME280;57491;42.694;23.314;2022-08-11T11:19:52;95094.25;;;35.20;24.78
70127;BME280;57491;42.694;23.314;2022-08-11T11:22:21;95088.03;;;35.76;23.54
70127;BME280;57491;42.694;23.314;2022-08-11T11:25:14;95098.94;;;35.44;24.46
70127;BME280;57491;42.694;23.314;2022-08-11T11:27:56;95092.09;;;34.92;24.64
70127;BME280;57491;42.694;23.314;2022-08-11T11:30:32;95094.63;;;35.10;24.42
70127;BME280;57491;42.694;23.314;2022-08-11T11:33:03;95100.94;;;35.47;23.55
70127;BME280;57491;42.694;23.314;2022-08-11T11:35:40;95092.88;;;35.95;23.39
70127;BME280;57491;42.694;23.314;2022-08-11T11:38:14;95093.06;;;36.63;22.69
70127;BME280;57491;42.694;23.314;2022-08-11T11:40:43;95094.69;;;36.80;22.45
70127;BME280;57491;42.694;23.314;2022-08-11T11:43:32;95094.13;;;37.14;22.40
70127;BME280;57491;42.694;23.314;2022-08-11T11:46:01;95088.13;;;36.81;23.02
70127;BME280;57491;42.694;23.314;2022-08-11T11:48:31;95085.50;;;36.44;23.35
70127;BME280;57491;42.694;23.314;2022-08-11T11:51:01;95082.66;;;36.13;23.56
70127;BME280;57491;42.694;23.314;2022-08-11T11:53:29;95077.66;;;36.03;23.59
70127;BME280;57491;42.694;23.314;2022-08-11T11:55:58;95067.63;;;36.03;23.75
70127;BME280;57491;42.694;23.314;2022-08-11T11:58:26;95076.88;;;36.02;23.57
70127;BME280;57491;42.694;23.314;2022-08-11T12:01:12;95069.44;;;36.23;22.30
70127;BME280;57491;42.694;23.314;2022-08-11T12:03:46;95073.72;;;36.77;22.89
70127;BME280;57491;42.694;23.314;2022-08-11T12:06:18;95084.59;;;37.20;22.92
70127;BME280;57491;42.694;23.314;2022-08-11T12:08:48;95086.94;;;36.94;23.50
70127;BME280;57491;42.694;23.314;2022-08-11T12:11:18;95086.44;;;36.36;24.14
70127;BME280;57491;42.694;23.314;2022-08-11T12:14:04;95076.44;;;36.12;24.38
70127;BME280;57491;42.694;23.314;2022-08-11T12:16:34;95066.28;;;35.97;24.17
70127;BME280;57491;42.694;23.314;2022-08-11T12:19:03;95068.66;;;35.74;25.11
70127;BME280;57491;42.694;23.314;2022-08-11T12:21:34;95053.28;;;35.30;25.66
70127;BME280;57491;42.694;23.314;2022-08-11T12:24:02;95059.44;;;34.85;26.41
70127;BME280;57491;42.694;23.314;2022-08-11T12:27:02;95063.34;;;34.34;26.95
70127;BME280;57491;42.694;23.314;2022-08-11T12:29:49;95067.94;;;33.84;27.75
70127;BME280;57491;42.694;23.314;2022-08-11T12:32:19;95072.19;;;33.47;28.13
70127;BME280;57491;42.694;23.314;2022-08-11T12:34:46;95081.16;;;33.22;28.15
70127;BME280;57491;42.694;23.314;2022-08-11T12:37:19;95075.03;;;32.95;28.41
70127;BME280;57491;42.694;23.314;2022-08-11T12:39:50;95084.69;;;32.62;28.53
70127;BME280;57491;42.694;23.314;2022-08-11T12:42:35;95065.03;;;32.18;29.88
70127;BME280;57491;42.694;23.314;2022-08-11T12:45:24;95088.91;;;32.11;29.52
70127;BME280;57491;42.694;23.314;2022-08-11T12:48:06;95086.78;;;31.82;29.85
70127;BME280;57491;42.694;23.314;2022-08-11T12:50:56;95081.06;;;31.44;31.59
70127;BME280;57491;42.694;23.314;2022-08-11T12:53:49;95083.63;;;31.19;32.38
70127;BME280;57491;42.694;23.314;2022-08-11T12:56:18;95087.41;;;30.95;32.98
70127;BME280;57491;42.694;23.314;2022-08-11T12:59:04;95076.50;;;30.70;32.98
70127;BME280;57491;42.694;23.314;2022-08-11T13:01:50;95080.34;;;30.55;32.95
70127;BME280;57491;42.694;23.314;2022-08-11T13:04:35;95074.88;;;30.60;33.80
70127;BME280;57491;42.694;23.314;2022-08-11T13:07:21;95071.03;;;30.52;33.31
70127;BME280;57491;42.694;23.314;2022-08-11T13:09:51;95076.88;;;30.54;33.51
70127;BME280;57491;42.694;23.314;2022-08-11T13:12:19;95074.69;;;30.56;33.77
70127;BME280;57491;42.694;23.314;2022-08-11T13:15:07;95084.13;;;30.40;33.97
70127;BME280;57491;42.694;23.314;2022-08-11T13:17:36;95069.44;;;30.51;34.26
70127;BME280;57491;42.694;23.314;2022-08-11T13:20:06;95053.34;;;30.51;33.65
70127;BME280;57491;42.694;23.314;2022-08-11T13:22:35;95077.50;;;30.74;32.87
70127;BME280;57491;42.694;23.314;2022-08-11T13:25:06;95068.53;;;30.78;32.16
70127;BME280;57491;42.694;23.314;2022-08-11T13:27:34;95071.09;;;30.61;32.48
70127;BME280;57491;42.694;23.314;2022-08-11T13:30:03;95058.25;;;30.58;32.34
70127;BME280;57491;42.694;23.314;2022-08-11T13:32:48;95060.47;;;30.56;31.99
70127;BME280;57491;42.694;23.314;2022-08-11T13:35:16;95056.50;;;30.53;32.08
70127;BME280;57491;42.694;23.314;2022-08-11T13:37:45;95048.09;;;30.46;32.84
70127;BME280;57491;42.694;23.314;2022-08-11T13:40:15;95026.19;;;30.17;32.27
70127;BME280;57491;42.694;23.314;2022-08-11T13:42:43;95058.03;;;30.32;31.88
70127;BME280;57491;42.694;23.314;2022-08-11T13:45:11;95054.63;;;30.04;32.69
70127;BME280;57491;42.694;23.314;2022-08-11T13:47:40;95053.75;;;29.95;32.17
70127;BME280;57491;42.694;23.314;2022-08-11T13:50:09;95049.00;;;29.79;31.81
70127;BME280;57491;42.694;23.314;2022-08-11T13:52:38;95040.78;;;29.75;31.31
70127;BME280;57491;42.694;23.314;2022-08-11T13:55:09;95050.69;;;29.88;31.77
70127;BME280;57491;42.694;23.314;2022-08-11T13:57:51;95039.06;;;29.79;31.58
70127;BME280;57491;42.694;23.314;2022-08-11T14:00:19;94992.44;;;29.66;31.58
70127;BME280;57491;42.694;23.314;2022-08-11T14:02:49;95044.69;;;30.05;31.42
70127;BME280;57491;42.694;23.314;2022-08-11T14:05:19;95032.53;;;29.99;31.11
70127;BME280;57491;42.694;23.314;2022-08-11T14:07:51;95027.19;;;29.72;31.84
70127;BME280;57491;42.694;23.314;2022-08-11T14:10:20;95030.25;;;29.65;30.63
70127;BME280;57491;42.694;23.314;2022-08-11T14:12:56;95027.38;;;29.75;30.82
70127;BME280;57491;42.694;23.314;2022-08-11T14:15:44;95037.69;;;29.54;30.67
70127;BME280;57491;42.694;23.314;2022-08-11T14:18:36;95042.81;;;29.10;32.07
70127;BME280;57491;42.694;23.314;2022-08-11T14:21:05;95032.97;;;28.92;31.29
70127;BME280;57491;42.694;23.314;2022-08-11T14:24:02;95039.66;;;29.08;33.13
70127;BME280;57491;42.694;23.314;2022-08-11T14:26:30;95041.53;;;29.21;33.42
70127;BME280;57491;42.694;23.314;2022-08-11T14:29:07;95034.31;;;29.21;33.82
70127;BME280;57491;42.694;23.314;2022-08-11T14:31:39;95032.25;;;29.32;33.48
70127;BME280;57491;42.694;23.314;2022-08-11T14:34:09;95031.44;;;29.45;33.74
70127;BME280;57491;42.694;23.314;2022-08-11T14:36:42;95027.63;;;29.19;34.03
70127;BME280;57491;42.694;23.314;2022-08-11T14:39:15;95034.81;;;29.37;33.93
70127;BME280;57491;42.694;23.314;2022-08-11T14:41:45;95040.78;;;29.48;33.74
70127;BME280;57491;42.694;23.314;2022-08-11T14:44:34;95036.94;;;29.40;34.46
70127;BME280;57491;42.694;23.314;2022-08-11T14:47:20;95026.75;;;29.10;34.68
70127;BME280;57491;42.694;23.314;2022-08-11T14:49:49;95029.41;;;28.96;35.18